Evening Shade, Missouri
Current Conditions -  °F | °C
As of 11:58 AM on Friday 24 Oct 2014 (Local Time) from KTBN Reporting Station
Overcast Overcast  
Wind Chill: 66°   Ceiling: 4200
Heat Index: 66°   Visibility: 10mi
Dew Point: 58°   Wind: 3mph
Humidity: 76%   Direction: 150°SSE
Pressure: 30.13"   Gusts: NA
Location:  37.492°N, 92.1844°W
Report Text: KTBN 241658Z AUTO 15003KT 10SM FEW022 OVC042 19/15 A3013 RMK AO2 SLP203 T01890145
Loading
Personal Weather Stations






























Interactive Weather Map
Tropical Storm Tracking
New forecast layout! Learn more

10-Day Weather Forecast

Advertisements
Track Severe Weather on mobile